Imagine... — ZGF06 — position and weather

sailwx.info

Track history (hours):
 
Tides and Currents Weather Stations Pressure Air Temp Water Temp Dewpoint Dewpoint Depression Visibility Wind Speed Wind Dir Waves Ship Positions

Imagine...

Last reported at 2018-Jul-14 19:05 UTC. Time now 2018-Jul-23 00:15 UTC.
Position N 41°41' W 071°25'.
Warning: this ship's position is 8 days out of date.

Length 60 m; draft 2.9 m.

Type: Pleasure craft. MMSI: 319098900.

Date/timePositionNaut miles runAvg speedWind from/ knotsBaromVisibWave heightAir tempDewpointWater temp
2018-Jul-14 19:05N 41°41' W 071°25'0 0.1
2018-Jul-14 18:58N 41°41' W 071°25'0 0.3
2018-Jul-14 18:30N 41°41' W 071°25'4 8.3
2018-Jul-14 17:59N 41°40' W 071°20'2 5.0
2018-Jul-14 17:30N 41°39' W 071°17'0 0.0
2018-Jul-14 14:56N 41°39' W 071°17'  
2018-Jul-11 10:04N 41°04' W 072°14'7 0.4
2018-Jul-10 15:26N 41°10' W 072°17'715.8
2018-Jul-10 15:00N 41°08' W 072°26'714.8
2018-Jul-10 14:30N 41°06' W 072°35'65 2.6
2018-Jul-09 12:59N 40°46' W 073°57'4 8.5
2018-Jul-09 12:30N 40°42' W 074°00'3 5.6
2018-Jul-09 12:00N 40°45' W 074°01'0 0.0
2018-Jul-09 11:27N 40°45' W 074°01'0 0.0
2018-Jul-09 10:51N 40°45' W 074°01'0 0.0
2018-Jul-09 10:27N 40°45' W 074°01'0 0.0
2018-Jul-09 09:45N 40°45' W 074°01'0 0.0
2018-Jul-09 09:27N 40°45' W 074°01'0 0.0
2018-Jul-09 08:57N 40°45' W 074°01'0 0.0
2018-Jul-09 08:27N 40°45' W 074°01'0 0.0
2018-Jul-09 07:27N 40°45' W 074°01'0 0.0
2018-Jul-09 06:51N 40°45' W 074°01'0 0.0
2018-Jul-09 06:21N 40°45' W 074°01'0 0.0
2018-Jul-09 05:51N 40°45' W 074°01'0 0.0
2018-Jul-09 05:27N 40°45' W 074°01'0 0.0
2018-Jul-09 04:51N 40°45' W 074°01'0 0.0
2018-Jul-09 04:27N 40°45' W 074°01'0 0.0
2018-Jul-09 03:45N 40°45' W 074°01'0 0.0
2018-Jul-09 03:21N 40°45' W 074°01'0 0.0
2018-Jul-09 02:57N 40°45' W 074°01'0 0.0
2018-Jul-09 02:27N 40°45' W 074°01'0 0.0
2018-Jul-09 01:57N 40°45' W 074°01'0 0.0
2018-Jul-09 01:27N 40°45' W 074°01'0 0.0
2018-Jul-09 00:57N 40°45' W 074°01'0 0.0
2018-Jul-09 00:21N 40°45' W 074°01'0 0.0
2018-Jul-08 23:51N 40°45' W 074°01'0 0.5
2018-Jul-08 23:30N 40°45' W 074°01'3 5.8
2018-Jul-08 23:00N 40°42' W 074°00'1 2.6
2018-Jul-08 22:30N 40°43' W 073°58'3 6.0
2018-Jul-08 22:00N 40°42' W 074°02'4 8.2
2018-Jul-08 21:30N 40°46' W 074°01'1 0.7
2018-Jul-08 19:42N 40°47' W 073°60'2 9.0
2018-Jul-08 19:30N 40°45' W 074°01'0 0.5
2018-Jul-08 18:58N 40°45' W 074°01'0 0.0
2018-Jul-08 18:28N 40°45' W 074°01'0 0.0
2018-Jul-08 17:58N 40°45' W 074°01'0 0.0
2018-Jul-08 17:22N 40°45' W 074°01'0 0.0
2018-Jul-08 16:58N 40°45' W 074°01'0 0.0
2018-Jul-08 16:28N 40°45' W 074°01'0 0.0
2018-Jul-08 15:58N 40°45' W 074°01'0 0.0
2018-Jul-08 15:28N 40°45' W 074°01'0 0.0
2018-Jul-08 14:58N 40°45' W 074°01'0 0.0
2018-Jul-08 14:28N 40°45' W 074°01'0 0.0
2018-Jul-08 13:58N 40°45' W 074°01'0 0.0
2018-Jul-08 11:43N 40°45' W 074°01'0 0.0
2018-Jul-08 11:22N 40°45' W 074°01'0 0.0
2018-Jul-08 10:46N 40°45' W 074°01'0 0.0
2018-Jul-08 10:28N 40°45' W 074°01'0 0.0
2018-Jul-08 09:58N 40°45' W 074°01'0 0.0
2018-Jul-08 09:28N 40°45' W 074°01'0 0.0
2018-Jul-08 08:58N 40°45' W 074°01'0 0.0
2018-Jul-08 08:28N 40°45' W 074°01'0 0.0
2018-Jul-08 07:58N 40°45' W 074°01'0 0.0
2018-Jul-08 07:22N 40°45' W 074°01'0 0.0
2018-Jul-08 06:46N 40°45' W 074°01'0 0.0
2018-Jul-08 06:28N 40°45' W 074°01'0 0.0
2018-Jul-08 05:52N 40°45' W 074°01'0 0.0
2018-Jul-08 05:28N 40°45' W 074°01'0 0.0
2018-Jul-08 04:58N 40°45' W 074°01'0 0.0
2018-Jul-08 04:28N 40°45' W 074°01'0 0.0
2018-Jul-08 03:58N 40°45' W 074°01'0 0.0
2018-Jul-08 03:28N 40°45' W 074°01'0 0.0
2018-Jul-08 02:58N 40°45' W 074°01'0 0.0
2018-Jul-08 02:22N 40°45' W 074°01'0 0.0
2018-Jul-07 22:46N 40°45' W 074°01'0 0.1
2018-Jul-07 22:30N 40°45' W 074°01'1 1.4
2018-Jul-07 22:00N 40°44' W 074°01'2 4.3
2018-Jul-07 21:30N 40°42' W 073°59'1 3.0
2018-Jul-07 21:00N 40°43' W 073°58'4 8.0
2018-Jul-07 20:30N 40°41' W 074°02'4 7.6
2018-Jul-07 20:00N 40°45' W 074°01'4 8.9
2018-Jul-07 19:30N 40°49' W 073°58'2 2.6
2018-Jul-07 18:36N 40°47' W 073°60'1 8.8
2018-Jul-07 18:29N 40°46' W 074°00'1 1.9
2018-Jul-07 18:00N 40°45' W 074°01'0 0.0
2018-Jul-07 17:25N 40°45' W 074°01'0 0.0
2018-Jul-07 14:46N 40°45' W 074°01'0 0.0
2018-Jul-07 14:13N 40°45' W 074°01'0 0.0
2018-Jul-07 13:55N 40°45' W 074°01'0 0.0
2018-Jul-07 13:07N 40°45' W 074°01'0 0.0
2018-Jul-07 11:49N 40°45' W 074°01'0 0.0
2018-Jul-07 11:25N 40°45' W 074°01'0 0.0
2018-Jul-07 10:58N 40°45' W 074°01'0 0.0
2018-Jul-07 10:19N 40°45' W 074°01'0 0.0
2018-Jul-07 09:58N 40°45' W 074°01'0 0.0
2018-Jul-07 09:28N 40°45' W 074°01'0 0.0
2018-Jul-07 08:43N 40°45' W 074°01'0 0.0
2018-Jul-07 08:25N 40°45' W 074°01'0 0.0
2018-Jul-07 07:55N 40°45' W 074°01'0 0.0
2018-Jul-07 07:25N 40°45' W 074°01'0 0.0
2018-Jul-07 06:58N 40°45' W 074°01'0 0.0
2018-Jul-07 06:22N 40°45' W 074°01'0 0.0
2018-Jul-07 05:55N 40°45' W 074°01'0 0.0
2018-Jul-07 05:22N 40°45' W 074°01'  
2018-Jul-04 21:20N 40°45' W 074°01'0 0.4
2018-Jul-04 20:59N 40°45' W 074°01'3 6.5
2018-Jul-04 20:31N 40°42' W 074°01'612.3
2018-Jul-04 19:59N 40°47' W 073°55'  
Track history (hours):
 
Tides and Currents Weather Stations Pressure Air Temp Water Temp Dewpoint Dewpoint Depression Visibility Wind Speed Wind Dir Waves Ship Positions

Imagine...

Last reported at 2018-Jul-14 19:05 UTC. Time now 2018-Jul-23 00:15 UTC.
Position N 41°41' W 071°25'.
Warning: this ship's position is 8 days out of date.

Length 60 m; draft 2.9 m.

Type: Pleasure craft. MMSI: 319098900.

Date/timePositionNaut miles runAvg speedWind from/ knotsBaromVisibWave heightAir tempDewpointWater temp
2018-Jul-14 19:05N 41°41' W 071°25'0 0.1
2018-Jul-14 18:58N 41°41' W 071°25'0 0.3
2018-Jul-14 18:30N 41°41' W 071°25'4 8.3
2018-Jul-14 17:59N 41°40' W 071°20'2 5.0
2018-Jul-14 17:30N 41°39' W 071°17'0 0.0
2018-Jul-14 14:56N 41°39' W 071°17'  
2018-Jul-11 10:04N 41°04' W 072°14'7 0.4
2018-Jul-10 15:26N 41°10' W 072°17'715.8
2018-Jul-10 15:00N 41°08' W 072°26'714.8
2018-Jul-10 14:30N 41°06' W 072°35'65 2.6
2018-Jul-09 12:59N 40°46' W 073°57'4 8.5
2018-Jul-09 12:30N 40°42' W 074°00'3 5.6
2018-Jul-09 12:00N 40°45' W 074°01'0 0.0
2018-Jul-09 11:27N 40°45' W 074°01'0 0.0
2018-Jul-09 10:51N 40°45' W 074°01'0 0.0
2018-Jul-09 10:27N 40°45' W 074°01'0 0.0
2018-Jul-09 09:45N 40°45' W 074°01'0 0.0
2018-Jul-09 09:27N 40°45' W 074°01'0 0.0
2018-Jul-09 08:57N 40°45' W 074°01'0 0.0
2018-Jul-09 08:27N 40°45' W 074°01'0 0.0
2018-Jul-09 07:27N 40°45' W 074°01'0 0.0
2018-Jul-09 06:51N 40°45' W 074°01'0 0.0
2018-Jul-09 06:21N 40°45' W 074°01'0 0.0
2018-Jul-09 05:51N 40°45' W 074°01'0 0.0
2018-Jul-09 05:27N 40°45' W 074°01'0 0.0
2018-Jul-09 04:51N 40°45' W 074°01'0 0.0
2018-Jul-09 04:27N 40°45' W 074°01'0 0.0
2018-Jul-09 03:45N 40°45' W 074°01'0 0.0
2018-Jul-09 03:21N 40°45' W 074°01'0 0.0
2018-Jul-09 02:57N 40°45' W 074°01'0 0.0
2018-Jul-09 02:27N 40°45' W 074°01'0 0.0
2018-Jul-09 01:57N 40°45' W 074°01'0 0.0
2018-Jul-09 01:27N 40°45' W 074°01'0 0.0
2018-Jul-09 00:57N 40°45' W 074°01'0 0.0
2018-Jul-09 00:21N 40°45' W 074°01'0 0.0
2018-Jul-08 23:51N 40°45' W 074°01'0 0.5
2018-Jul-08 23:30N 40°45' W 074°01'3 5.8
2018-Jul-08 23:00N 40°42' W 074°00'1 2.6
2018-Jul-08 22:30N 40°43' W 073°58'3 6.0
2018-Jul-08 22:00N 40°42' W 074°02'4 8.2
2018-Jul-08 21:30N 40°46' W 074°01'1 0.7
2018-Jul-08 19:42N 40°47' W 073°60'2 9.0
2018-Jul-08 19:30N 40°45' W 074°01'0 0.5
2018-Jul-08 18:58N 40°45' W 074°01'0 0.0
2018-Jul-08 18:28N 40°45' W 074°01'0 0.0
2018-Jul-08 17:58N 40°45' W 074°01'0 0.0
2018-Jul-08 17:22N 40°45' W 074°01'0 0.0
2018-Jul-08 16:58N 40°45' W 074°01'0 0.0
2018-Jul-08 16:28N 40°45' W 074°01'0 0.0
2018-Jul-08 15:58N 40°45' W 074°01'0 0.0
2018-Jul-08 15:28N 40°45' W 074°01'0 0.0
2018-Jul-08 14:58N 40°45' W 074°01'0 0.0
2018-Jul-08 14:28N 40°45' W 074°01'0 0.0
2018-Jul-08 13:58N 40°45' W 074°01'0 0.0
2018-Jul-08 11:43N 40°45' W 074°01'0 0.0
2018-Jul-08 11:22N 40°45' W 074°01'0 0.0
2018-Jul-08 10:46N 40°45' W 074°01'0 0.0
2018-Jul-08 10:28N 40°45' W 074°01'0 0.0
2018-Jul-08 09:58N 40°45' W 074°01'0 0.0
2018-Jul-08 09:28N 40°45' W 074°01'0 0.0
2018-Jul-08 08:58N 40°45' W 074°01'0 0.0
2018-Jul-08 08:28N 40°45' W 074°01'0 0.0
2018-Jul-08 07:58N 40°45' W 074°01'0 0.0
2018-Jul-08 07:22N 40°45' W 074°01'0 0.0
2018-Jul-08 06:46N 40°45' W 074°01'0 0.0
2018-Jul-08 06:28N 40°45' W 074°01'0 0.0
2018-Jul-08 05:52N 40°45' W 074°01'0 0.0
2018-Jul-08 05:28N 40°45' W 074°01'0 0.0
2018-Jul-08 04:58N 40°45' W 074°01'0 0.0
2018-Jul-08 04:28N 40°45' W 074°01'0 0.0
2018-Jul-08 03:58N 40°45' W 074°01'0 0.0
2018-Jul-08 03:28N 40°45' W 074°01'0 0.0
2018-Jul-08 02:58N 40°45' W 074°01'0 0.0
2018-Jul-08 02:22N 40°45' W 074°01'0 0.0
2018-Jul-07 22:46N 40°45' W 074°01'0 0.1
2018-Jul-07 22:30N 40°45' W 074°01'1 1.4
2018-Jul-07 22:00N 40°44' W 074°01'2 4.3
2018-Jul-07 21:30N 40°42' W 073°59'1 3.0
2018-Jul-07 21:00N 40°43' W 073°58'4 8.0
2018-Jul-07 20:30N 40°41' W 074°02'4 7.6
2018-Jul-07 20:00N 40°45' W 074°01'4 8.9
2018-Jul-07 19:30N 40°49' W 073°58'2 2.6
2018-Jul-07 18:36N 40°47' W 073°60'1 8.8
2018-Jul-07 18:29N 40°46' W 074°00'1 1.9
2018-Jul-07 18:00N 40°45' W 074°01'0 0.0
2018-Jul-07 17:25N 40°45' W 074°01'0 0.0
2018-Jul-07 14:46N 40°45' W 074°01'0 0.0
2018-Jul-07 14:13N 40°45' W 074°01'0 0.0
2018-Jul-07 13:55N 40°45' W 074°01'0 0.0
2018-Jul-07 13:07N 40°45' W 074°01'0 0.0
2018-Jul-07 11:49N 40°45' W 074°01'0 0.0
2018-Jul-07 11:25N 40°45' W 074°01'0 0.0
2018-Jul-07 10:58N 40°45' W 074°01'0 0.0
2018-Jul-07 10:19N 40°45' W 074°01'0 0.0
2018-Jul-07 09:58N 40°45' W 074°01'0 0.0
2018-Jul-07 09:28N 40°45' W 074°01'0 0.0
2018-Jul-07 08:43N 40°45' W 074°01'0 0.0
2018-Jul-07 08:25N 40°45' W 074°01'0 0.0
2018-Jul-07 07:55N 40°45' W 074°01'0 0.0
2018-Jul-07 07:25N 40°45' W 074°01'0 0.0
2018-Jul-07 06:58N 40°45' W 074°01'0 0.0
2018-Jul-07 06:22N 40°45' W 074°01'0 0.0
2018-Jul-07 05:55N 40°45' W 074°01'0 0.0
2018-Jul-07 05:22N 40°45' W 074°01'  
2018-Jul-04 21:20N 40°45' W 074°01'0 0.4
2018-Jul-04 20:59N 40°45' W 074°01'3 6.5
2018-Jul-04 20:31N 40°42' W 074°01'612.3
2018-Jul-04 19:59N 40°47' W 073°55'  

Dump ship's entire track history